Illizi, Algeria
Current Conditions -  °F | °C
As of 12:00 AM on Saturday 20 Dec 2014 (Local Time) from DAAP Reporting Station
Clear Clear  
Wind Chill: 10°   Ceiling: Unl
Heat Index: 10°   Visibility: 6mi
Dew Point: -1°   Wind: 0mph
Humidity: 47%   Direction: NA
Pressure: 30.36"   Gusts: NA
Location:  26.5°N, 8.42°E
Report Text: DAAP 192300Z 00000KT CAVOK 10/M01 Q1028
Loading
Personal Weather Stations






























Interactive Weather Map New forecast layout! Learn more

10-Day Weather Forecast

Advertisements
Track Severe Weather on mobile